createdAt,value
2024-01-24T00:02:06.597Z,101180.06
2024-01-24T00:04:34.304Z,101178.38
2024-01-24T00:07:01.696Z,101177.94
2024-01-24T00:09:31.982Z,101184.03
2024-01-24T00:11:59.880Z,101191.94
2024-01-24T00:14:27.369Z,101199.44
2024-01-24T00:16:54.756Z,101205.81
2024-01-24T00:19:22.567Z,101209.94
2024-01-24T00:21:50.039Z,101190.78
2024-01-24T00:24:17.640Z,101188.81
2024-01-24T00:26:45.334Z,101193.03
2024-01-24T00:29:12.746Z,101193.97
2024-01-24T00:31:40.217Z,101211.59
2024-01-24T00:34:07.986Z,101201.56
2024-01-24T00:36:35.417Z,101196.34
2024-01-24T00:39:02.838Z,101198.25
2024-01-24T00:41:30.474Z,101180.06
2024-01-24T00:43:57.854Z,101182.59
2024-01-24T00:46:25.267Z,101188.78
2024-01-24T00:48:53.017Z,101181.84
2024-01-24T00:51:20.442Z,101189.84
2024-01-24T00:53:52.235Z,101196.94
2024-01-24T00:56:19.953Z,101199.56
2024-01-24T00:58:47.451Z,101194.47
2024-01-24T01:01:14.960Z,101200.63
2024-01-24T01:03:42.770Z,101201.16
2024-01-24T01:06:10.158Z,101192.78
2024-01-24T01:08:37.590Z,101173.69
2024-01-24T01:11:06.267Z,101177.91
2024-01-24T01:13:36.695Z,101173.06
2024-01-24T01:16:04.568Z,101157.62
2024-01-24T01:18:32.243Z,101153.59
2024-01-24T01:20:59.616Z,101157.84
2024-01-24T01:23:27.026Z,101142.69
2024-01-24T01:25:54.657Z,101136.91
2024-01-24T01:28:22.017Z,101122.00
2024-01-24T01:30:49.480Z,101121.00
2024-01-24T01:33:17.471Z,101113.66
2024-01-24T01:35:44.983Z,101124.69
2024-01-24T01:38:14.487Z,101126.78
2024-01-24T01:40:42.277Z,101129.34
2024-01-24T01:43:14.741Z,101121.94
2024-01-24T01:45:42.714Z,101124.53
2024-01-24T01:48:10.371Z,101114.31
2024-01-24T01:50:38.283Z,101098.66
2024-01-24T01:53:05.938Z,101091.06
2024-01-24T01:55:33.376Z,101089.94
2024-01-24T01:58:01.298Z,101085.44
2024-01-24T02:00:29.021Z,101073.59
2024-01-24T02:02:56.714Z,101086.84
2024-01-24T02:05:24.136Z,101086.00
2024-01-24T02:07:51.874Z,101086.56
2024-01-24T02:10:19.294Z,101087.16
2024-01-24T02:12:46.739Z,101087.78
2024-01-24T02:15:14.658Z,101092.41
2024-01-24T02:17:42.158Z,101087.78
2024-01-24T02:20:12.298Z,101073.63
2024-01-24T02:22:39.951Z,101072.13
2024-01-24T02:25:07.818Z,101073.81
2024-01-24T02:27:35.244Z,101070.75
2024-01-24T02:30:02.955Z,101069.12
2024-01-24T02:32:30.370Z,101072.41
2024-01-24T02:34:57.804Z,101061.88
2024-01-24T02:37:25.439Z,101061.78
2024-01-24T02:39:52.847Z,101058.97
2024-01-24T02:42:20.304Z,101061.56
2024-01-24T02:44:48.014Z,101059.56
2024-01-24T02:47:15.588Z,101055.34
2024-01-24T02:49:43.126Z,101051.66
2024-01-24T02:52:10.896Z,101061.63
2024-01-24T02:54:38.654Z,101059.81
2024-01-24T02:57:06.166Z,101050.31
2024-01-24T02:59:33.891Z,101052.94
2024-01-24T03:02:01.266Z,101053.25
2024-01-24T03:04:28.809Z,101052.78
2024-01-24T03:06:57.137Z,101042.06
2024-01-24T03:09:24.627Z,101036.81
2024-01-24T03:11:51.995Z,101031.38
2024-01-24T03:14:19.744Z,101014.41
2024-01-24T03:16:47.092Z,101023.63
2024-01-24T03:19:15.069Z,101008.78
2024-01-24T03:21:43.095Z,100999.41
2024-01-24T03:24:11.106Z,100994.06
2024-01-24T03:26:38.509Z,100985.97
2024-01-24T03:29:06.169Z,100987.47
2024-01-24T03:31:33.512Z,100979.37
2024-01-24T03:34:00.971Z,100974.38
2024-01-24T03:36:28.718Z,100967.50
2024-01-24T03:38:56.135Z,100960.66
2024-01-24T03:41:23.614Z,100958.50
2024-01-24T03:43:51.353Z,100957.66
2024-01-24T03:46:21.580Z,100947.16
2024-01-24T03:48:49.186Z,100958.03
2024-01-24T03:51:16.914Z,100965.25
2024-01-24T03:53:44.274Z,100962.34
2024-01-24T03:56:11.881Z,100959.78
2024-01-24T03:58:39.583Z,100962.09
2024-01-24T04:01:07.115Z,100960.78
2024-01-24T04:03:34.963Z,100955.97
2024-01-24T04:06:02.525Z,100954.12
2024-01-24T04:08:29.918Z,100947.59
2024-01-24T04:10:57.573Z,100952.72
2024-01-24T04:13:25.346Z,100945.53
2024-01-24T04:15:52.809Z,100940.94
2024-01-24T04:18:20.598Z,100950.19
2024-01-24T04:20:48.278Z,100952.31
2024-01-24T04:23:15.704Z,100950.97
2024-01-24T04:25:43.386Z,100944.09
2024-01-24T04:28:10.817Z,100944.41
2024-01-24T04:30:39.189Z,100935.03
2024-01-24T04:33:08.549Z,100939.03
2024-01-24T04:35:36.046Z,100937.88
2024-01-24T04:38:03.756Z,100940.19
2024-01-24T04:40:31.388Z,100936.50
2024-01-24T04:42:58.875Z,100938.31
2024-01-24T04:45:26.349Z,100936.94
2024-01-24T04:47:54.129Z,100928.41
2024-01-24T04:50:23.097Z,100918.59
2024-01-24T04:52:50.933Z,100927.44
2024-01-24T04:55:18.603Z,100924.41
2024-01-24T04:57:45.973Z,100928.50
2024-01-24T05:00:14.100Z,100921.75
2024-01-24T05:02:41.850Z,100917.84
2024-01-24T05:05:09.590Z,100916.91
2024-01-24T05:07:37.030Z,100905.50
2024-01-24T05:10:05.659Z,100909.00
2024-01-24T05:12:33.533Z,100899.22
2024-01-24T05:15:01.037Z,100903.94
2024-01-24T05:17:29.516Z,100889.16
2024-01-24T05:19:56.941Z,100880.09
2024-01-24T05:22:24.308Z,100875.75
2024-01-24T05:24:52.258Z,100885.06
2024-01-24T05:27:20.054Z,100883.91
2024-01-24T05:29:48.590Z,100886.22
2024-01-24T05:32:16.244Z,100888.81
2024-01-24T05:34:43.748Z,100885.50
2024-01-24T05:37:11.195Z,100887.28
2024-01-24T05:39:38.842Z,100883.66
2024-01-24T05:42:06.208Z,100887.22
2024-01-24T05:44:33.601Z,100890.16
2024-01-24T05:47:01.232Z,100885.50
2024-01-24T05:49:28.748Z,100889.34
2024-01-24T05:51:56.313Z,100884.50
2024-01-24T05:54:24.101Z,100884.25
2024-01-24T05:56:51.590Z,100870.00
2024-01-24T05:59:19.368Z,100867.31
2024-01-24T06:01:47.267Z,100867.87
2024-01-24T06:04:15.168Z,100864.34
2024-01-24T06:06:42.977Z,100879.09
2024-01-24T06:09:10.587Z,100873.44
2024-01-24T06:11:38.506Z,100878.47
2024-01-24T06:14:05.986Z,100878.50
2024-01-24T06:16:33.524Z,100864.88
2024-01-24T06:19:01.264Z,100875.00
2024-01-24T06:21:28.786Z,100865.41
2024-01-24T06:23:56.389Z,100860.56
2024-01-24T06:26:24.021Z,100856.78
2024-01-24T06:28:51.431Z,100861.09
2024-01-24T06:31:18.992Z,100854.34
2024-01-24T06:33:48.063Z,100841.66
2024-01-24T06:36:15.540Z,100835.59
2024-01-24T06:38:46.086Z,100812.44
2024-01-24T06:41:14.248Z,100808.59
2024-01-24T06:43:43.594Z,100807.03
2024-01-24T06:46:10.938Z,100811.16
2024-01-24T06:48:40.136Z,100798.25
2024-01-24T06:51:13.204Z,100787.38
2024-01-24T06:53:40.879Z,100787.03
2024-01-24T06:56:09.830Z,100790.63
2024-01-24T06:58:41.852Z,100780.78
2024-01-24T07:01:09.730Z,100768.09
2024-01-24T07:03:37.554Z,100773.34
2024-01-24T07:06:06.779Z,100754.50
2024-01-24T07:08:38.028Z,100762.06
2024-01-24T07:11:07.092Z,100762.31
2024-01-24T07:13:35.253Z,100746.06
2024-01-24T07:16:05.298Z,100741.53
2024-01-24T07:18:33.117Z,100738.78
2024-01-24T07:21:01.197Z,100746.41
2024-01-24T07:23:28.818Z,100741.63
2024-01-24T07:25:56.191Z,100740.84
2024-01-24T07:28:24.045Z,100744.22
2024-01-24T07:30:51.471Z,100735.69
2024-01-24T07:33:22.302Z,100734.88
2024-01-24T07:35:52.064Z,100746.31
2024-01-24T07:38:19.947Z,100735.56
2024-01-24T07:40:47.482Z,100723.31
2024-01-24T07:43:15.279Z,100726.09
2024-01-24T07:45:42.900Z,100721.09
2024-01-24T07:48:15.288Z,100724.94
2024-01-24T07:50:43.452Z,100717.66
2024-01-24T07:53:11.178Z,100714.91
2024-01-24T07:55:51.176Z,100716.84
2024-01-24T07:58:24.441Z,100712.72
2024-01-24T08:00:52.093Z,100715.31
2024-01-24T08:03:20.635Z,100721.00
2024-01-24T08:05:48.418Z,100706.38
2024-01-24T08:08:16.820Z,100707.44
2024-01-24T08:10:45.363Z,100714.59
2024-01-24T08:13:13.062Z,100716.34
2024-01-24T08:15:40.480Z,100710.66
2024-01-24T08:18:09.218Z,100727.03
2024-01-24T08:20:36.677Z,100717.91
2024-01-24T08:23:04.153Z,100709.81
2024-01-24T08:25:31.830Z,100717.00
2024-01-24T08:27:59.605Z,100717.28
2024-01-24T08:30:27.213Z,100714.66
2024-01-24T08:32:54.933Z,100707.81
2024-01-24T08:35:22.404Z,100704.28
2024-01-24T08:37:49.819Z,100693.34
2024-01-24T08:40:18.471Z,100704.31
2024-01-24T08:42:45.931Z,100700.56
2024-01-24T08:45:13.372Z,100695.25
2024-01-24T08:47:41.035Z,100691.31
2024-01-24T08:50:08.973Z,100690.91
2024-01-24T08:52:36.581Z,100685.94
2024-01-24T08:55:04.666Z,100683.91
2024-01-24T08:57:32.507Z,100671.75
2024-01-24T08:59:59.980Z,100669.62
2024-01-24T09:02:28.064Z,100661.22
2024-01-24T09:04:56.101Z,100650.72
2024-01-24T09:07:23.870Z,100650.53
2024-01-24T09:09:52.538Z,100657.34
2024-01-24T09:12:20.188Z,100639.94
2024-01-24T09:14:47.614Z,100641.56
2024-01-24T09:17:15.334Z,100621.91
2024-01-24T09:19:43.236Z,100616.34
2024-01-24T09:22:11.339Z,100626.63
2024-01-24T09:24:39.086Z,100632.38
2024-01-24T09:27:07.041Z,100634.00
2024-01-24T09:29:34.421Z,100619.87
2024-01-24T09:32:02.168Z,100612.34
2024-01-24T09:34:29.801Z,100618.62
2024-01-24T09:36:57.338Z,100602.25
2024-01-24T09:39:26.605Z,100582.97
2024-01-24T09:41:54.086Z,100608.19
2024-01-24T09:44:21.745Z,100604.88
2024-01-24T09:46:49.474Z,100596.56
2024-01-24T09:49:18.659Z,100598.00
2024-01-24T09:51:46.170Z,100585.34
2024-01-24T09:54:14.342Z,100584.69
2024-01-24T09:56:41.878Z,100573.22
2024-01-24T09:59:09.398Z,100559.72
2024-01-24T10:01:39.918Z,100556.63
2024-01-24T10:04:08.560Z,100540.81
2024-01-24T10:06:39.363Z,100518.78
2024-01-24T10:09:08.852Z,100504.94
2024-01-24T10:11:37.010Z,100503.38
2024-01-24T10:14:04.457Z,100501.13
2024-01-24T10:16:31.873Z,100500.78
2024-01-24T10:18:59.789Z,100489.75
2024-01-24T10:21:27.655Z,100470.53
2024-01-24T10:24:00.547Z,100464.00
2024-01-24T10:26:28.831Z,100446.16
2024-01-24T10:28:58.237Z,100445.78
2024-01-24T10:31:33.440Z,100441.59
2024-01-24T10:34:08.638Z,100435.03
2024-01-24T10:36:44.964Z,100428.47
2024-01-24T10:39:41.652Z,100440.09
2024-01-24T10:42:46.140Z,100424.31
2024-01-24T10:45:18.170Z,100430.06
2024-01-24T10:47:47.492Z,100413.44
2024-01-24T10:50:16.582Z,100420.53
2024-01-24T10:52:44.709Z,100423.50
2024-01-24T10:55:13.902Z,100415.03
2024-01-24T10:57:44.934Z,100421.06
2024-01-24T11:00:14.730Z,100413.66
2024-01-24T11:02:43.469Z,100384.75
2024-01-24T11:05:14.252Z,100372.50
2024-01-24T11:07:51.156Z,100362.03
2024-01-24T11:10:30.108Z,100360.38
2024-01-24T11:12:57.533Z,100341.00
2024-01-24T11:15:28.300Z,100333.66
2024-01-24T11:18:24.433Z,100322.34
2024-01-24T11:20:56.058Z,100307.31
2024-01-24T11:23:39.803Z,100315.63
2024-01-24T11:26:27.603Z,100316.09
2024-01-24T11:29:08.229Z,100313.03
2024-01-24T11:31:43.227Z,100310.09
2024-01-24T11:34:12.857Z,100295.59
2024-01-24T11:36:46.524Z,100269.25
2024-01-24T11:39:33.900Z,100243.47
2024-01-24T11:42:32.095Z,100220.13
2024-01-24T11:45:18.515Z,100229.00
2024-01-24T11:47:47.176Z,100229.00
2024-01-24T11:50:16.315Z,100232.66
2024-01-24T11:52:45.590Z,100246.12
2024-01-24T11:55:13.421Z,100252.47
2024-01-24T11:57:41.037Z,100244.53
2024-01-24T12:00:10.212Z,100262.91
2024-01-24T12:02:38.037Z,100259.28
2024-01-24T12:05:05.962Z,100265.72
2024-01-24T12:07:33.439Z,100259.69
2024-01-24T12:10:01.211Z,100264.72
2024-01-24T12:12:29.053Z,100257.63
2024-01-24T12:14:59.660Z,100264.06
2024-01-24T12:17:27.632Z,100245.03
2024-01-24T12:19:55.450Z,100241.41
2024-01-24T12:22:23.204Z,100265.47
2024-01-24T12:24:51.348Z,100253.16
2024-01-24T12:27:19.138Z,100245.56
2024-01-24T12:29:51.940Z,100257.44
2024-01-24T12:32:22.304Z,100243.59
2024-01-24T12:34:50.913Z,100248.75
2024-01-24T12:37:20.799Z,100265.72
2024-01-24T12:39:52.013Z,100264.72
2024-01-24T12:42:19.394Z,100251.59
2024-01-24T12:44:52.558Z,100240.06
2024-01-24T12:47:20.387Z,100221.09
2024-01-24T12:49:48.600Z,100231.41
2024-01-24T12:52:16.540Z,100217.56
2024-01-24T12:54:44.468Z,100213.56
2024-01-24T12:57:12.161Z,100212.41
2024-01-24T12:59:39.785Z,100207.53
2024-01-24T13:02:10.241Z,100203.47
2024-01-24T13:04:37.817Z,100193.91
2024-01-24T13:07:06.092Z,100194.81
2024-01-24T13:09:39.508Z,100196.41
2024-01-24T13:12:10.335Z,100214.06
2024-01-24T13:14:38.101Z,100225.66
2024-01-24T13:17:05.499Z,100229.97
2024-01-24T13:19:32.978Z,100245.13
2024-01-24T13:22:00.783Z,100245.25
2024-01-24T13:24:28.884Z,100230.97
2024-01-24T13:26:59.085Z,100209.78
2024-01-24T13:29:26.930Z,100204.75
2024-01-24T13:31:54.411Z,100192.81
2024-01-24T13:34:22.008Z,100189.47
2024-01-24T13:36:50.303Z,100195.47
2024-01-24T13:39:18.420Z,100183.34
2024-01-24T13:41:45.848Z,100163.81
2024-01-24T13:44:14.146Z,100163.69
2024-01-24T13:46:41.845Z,100146.69
2024-01-24T13:49:12.134Z,100141.06
2024-01-24T13:51:43.320Z,100153.91
2024-01-24T13:54:12.581Z,100154.31
2024-01-24T13:56:40.248Z,100155.87
2024-01-24T13:59:07.631Z,100149.47
2024-01-24T14:01:38.513Z,100142.59
2024-01-24T14:04:12.913Z,100144.88
2024-01-24T14:06:40.670Z,100125.22
2024-01-24T14:09:08.795Z,100143.44
2024-01-24T14:11:36.534Z,100128.13
2024-01-24T14:14:04.742Z,100126.44
2024-01-24T14:16:32.178Z,100119.38
2024-01-24T14:19:01.000Z,100115.28
2024-01-24T14:21:28.965Z,100104.63
2024-01-24T14:23:57.204Z,100106.81
2024-01-24T14:26:30.508Z,100117.69
2024-01-24T14:28:59.102Z,100129.75
2024-01-24T14:31:26.793Z,100113.94
2024-01-24T14:33:54.325Z,100110.00
2024-01-24T14:36:32.545Z,100100.59
2024-01-24T14:39:00.608Z,100105.91
2024-01-24T14:41:29.515Z,100119.13
2024-01-24T14:43:56.894Z,100102.19
2024-01-24T14:46:25.904Z,100101.81
2024-01-24T14:48:53.859Z,100094.03
2024-01-24T14:51:23.321Z,100088.88
2024-01-24T14:53:51.887Z,100090.66
2024-01-24T14:56:19.385Z,100078.13
2024-01-24T14:58:46.951Z,100079.34
2024-01-24T15:01:18.155Z,100074.72
2024-01-24T15:03:45.665Z,100068.44
2024-01-24T15:06:13.119Z,100073.25
2024-01-24T15:08:40.743Z,100073.88
2024-01-24T15:11:08.117Z,100060.81
2024-01-24T15:13:36.759Z,100069.81
2024-01-24T15:16:04.701Z,100049.47
2024-01-24T15:18:32.298Z,100046.28
2024-01-24T15:21:07.786Z,100052.88
2024-01-24T15:23:40.084Z,100045.00
2024-01-24T15:26:08.820Z,100043.31
2024-01-24T15:28:38.261Z,100039.41
2024-01-24T15:31:08.581Z,100039.41
2024-01-24T15:33:36.258Z,100056.50
2024-01-24T15:36:04.004Z,100051.41
2024-01-24T15:38:31.645Z,100052.62
2024-01-24T15:40:59.360Z,100050.75
2024-01-24T15:43:30.160Z,100041.44
2024-01-24T15:45:58.455Z,100027.69
2024-01-24T15:48:26.091Z,100025.12
2024-01-24T15:50:53.665Z,100019.94
2024-01-24T15:53:21.453Z,100000.69
2024-01-24T15:55:50.871Z,100016.37
2024-01-24T15:58:18.723Z,100033.16
2024-01-24T16:00:46.864Z,100026.53
2024-01-24T16:03:14.909Z,100035.03
2024-01-24T16:05:45.579Z,100031.09
2024-01-24T16:08:13.578Z,100036.16
2024-01-24T16:10:41.365Z,100040.91
2024-01-24T16:13:09.226Z,100025.50
2024-01-24T16:15:36.969Z,100029.81
2024-01-24T16:18:05.210Z,100023.87
2024-01-24T16:20:33.329Z,100059.69
2024-01-24T16:23:01.115Z,100046.44
2024-01-24T16:25:28.979Z,100050.41
2024-01-24T16:27:56.731Z,100060.44
2024-01-24T16:30:28.047Z,100069.75
2024-01-24T16:32:56.137Z,100081.91
2024-01-24T16:35:23.897Z,100093.31
2024-01-24T16:37:51.437Z,100100.59
2024-01-24T16:40:19.152Z,100081.28
2024-01-24T16:42:46.722Z,100064.97
2024-01-24T16:45:15.698Z,100071.00
2024-01-24T16:47:45.966Z,100070.72
2024-01-24T16:50:13.733Z,100079.25
2024-01-24T16:52:41.294Z,100066.69
2024-01-24T16:55:09.577Z,100069.53
2024-01-24T16:57:37.312Z,100071.41
2024-01-24T17:00:05.528Z,100074.69
2024-01-24T17:02:41.978Z,100090.63
2024-01-24T17:05:13.638Z,100062.94
2024-01-24T17:07:41.546Z,100070.13
2024-01-24T17:10:09.204Z,100062.88
2024-01-24T17:12:36.994Z,100068.75
2024-01-24T17:15:05.111Z,100094.66
2024-01-24T17:17:32.697Z,100095.94
2024-01-24T17:20:00.421Z,100104.81
2024-01-24T17:22:28.328Z,100097.78
2024-01-24T17:24:55.790Z,100081.25
2024-01-24T17:27:23.208Z,100079.75
2024-01-24T17:29:50.963Z,100085.50
2024-01-24T17:32:18.503Z,100102.31
2024-01-24T17:34:45.931Z,100106.06
2024-01-24T17:37:13.810Z,100089.62
2024-01-24T17:39:41.345Z,100082.16
2024-01-24T17:42:09.074Z,100060.28
2024-01-24T17:44:36.937Z,100077.47
2024-01-24T17:47:04.949Z,100063.16
2024-01-24T17:49:32.618Z,100063.34
2024-01-24T17:52:00.425Z,100060.19
2024-01-24T17:54:27.851Z,100071.16
2024-01-24T17:56:55.298Z,100065.81
2024-01-24T17:59:22.953Z,100073.91
2024-01-24T18:01:51.159Z,100073.50
2024-01-24T18:04:19.018Z,100078.56
2024-01-24T18:06:47.179Z,100090.34
2024-01-24T18:09:14.733Z,100091.41
2024-01-24T18:11:42.504Z,100096.00
2024-01-24T18:14:09.866Z,100103.38
2024-01-24T18:16:37.567Z,100104.47
2024-01-24T18:19:05.382Z,100110.28
2024-01-24T18:21:32.843Z,100112.75
2024-01-24T18:24:00.210Z,100118.03
2024-01-24T18:26:27.881Z,100124.91
2024-01-24T18:28:55.307Z,100127.69
2024-01-24T18:31:22.706Z,100135.09
2024-01-24T18:33:51.587Z,100124.53
2024-01-24T18:36:19.060Z,100115.44
2024-01-24T18:38:46.409Z,100102.91
2024-01-24T18:41:23.055Z,100110.59
2024-01-24T18:43:53.021Z,100120.44
2024-01-24T18:46:21.849Z,100111.97
2024-01-24T18:48:49.649Z,100107.94
2024-01-24T18:51:17.576Z,100101.41
2024-01-24T18:53:45.584Z,100092.81
2024-01-24T18:56:13.942Z,100108.25
2024-01-24T18:58:41.470Z,100099.72
2024-01-24T19:01:09.603Z,100078.91
2024-01-24T19:03:38.592Z,100083.09
2024-01-24T19:06:06.565Z,100085.59
2024-01-24T19:08:37.288Z,100089.19
2024-01-24T19:11:05.204Z,100080.00
2024-01-24T19:13:34.765Z,100082.69
2024-01-24T19:16:02.871Z,100088.22
2024-01-24T19:18:30.541Z,100090.03
2024-01-24T19:20:58.095Z,100099.22
2024-01-24T19:23:25.758Z,100085.06
2024-01-24T19:25:53.150Z,100081.69
2024-01-24T19:28:20.707Z,100086.12
2024-01-24T19:30:48.559Z,100085.31
2024-01-24T19:33:16.106Z,100092.00
2024-01-24T19:35:43.571Z,100088.09
2024-01-24T19:38:12.787Z,100091.44
2024-01-24T19:40:41.739Z,100085.31
2024-01-24T19:43:09.201Z,100093.22
2024-01-24T19:45:37.308Z,100091.81
2024-01-24T19:48:05.271Z,100102.56
2024-01-24T19:50:32.748Z,100100.03
2024-01-24T19:53:02.471Z,100103.38
2024-01-24T19:55:29.961Z,100111.25
2024-01-24T19:57:58.950Z,100116.97
2024-01-24T20:00:27.044Z,100114.06
2024-01-24T20:02:54.727Z,100126.97
2024-01-24T20:05:22.132Z,100137.16
2024-01-24T20:07:49.730Z,100123.22
2024-01-24T20:10:18.283Z,100126.56
2024-01-24T20:12:45.727Z,100132.41
2024-01-24T20:15:13.949Z,100130.03
2024-01-24T20:17:46.266Z,100134.41
2024-01-24T20:20:15.088Z,100127.81
2024-01-24T20:22:42.859Z,100127.00
2024-01-24T20:25:10.415Z,100111.09
2024-01-24T20:27:37.898Z,100107.47
2024-01-24T20:30:06.025Z,100108.03
2024-01-24T20:32:34.630Z,100119.63
2024-01-24T20:35:05.519Z,100116.72
2024-01-24T20:37:33.217Z,100110.75
2024-01-24T20:40:00.774Z,100104.87
2024-01-24T20:42:29.497Z,100108.37
2024-01-24T20:45:00.783Z,100111.16
2024-01-24T20:47:28.548Z,100106.84
2024-01-24T20:49:56.640Z,100105.53
2024-01-24T20:52:24.553Z,100113.31
2024-01-24T20:54:52.015Z,100100.25
2024-01-24T20:57:19.499Z,100096.56
2024-01-24T20:59:47.750Z,100097.81
2024-01-24T21:02:15.388Z,100098.09
2024-01-24T21:04:43.154Z,100106.66
2024-01-24T21:07:10.974Z,100103.00
2024-01-24T21:09:38.475Z,100109.44
2024-01-24T21:12:08.137Z,100103.69
2024-01-24T21:14:35.798Z,100107.97
2024-01-24T21:17:03.504Z,100105.31
2024-01-24T21:19:31.033Z,100087.38
2024-01-24T21:21:59.541Z,100086.22
2024-01-24T21:24:27.105Z,100089.59
2024-01-24T21:26:54.527Z,100093.06
2024-01-24T21:29:22.383Z,100091.22
2024-01-24T21:31:49.973Z,100100.81
2024-01-24T21:34:18.320Z,100098.34
2024-01-24T21:36:48.562Z,100105.28
2024-01-24T21:39:17.426Z,100109.22
2024-01-24T21:41:44.834Z,100103.84
2024-01-24T21:44:12.493Z,100100.00
2024-01-24T21:46:39.913Z,100102.44
2024-01-24T21:49:07.761Z,100105.72
2024-01-24T21:51:35.546Z,100115.78
2024-01-24T21:54:02.973Z,100118.03
2024-01-24T21:56:30.763Z,100114.50
2024-01-24T21:58:58.777Z,100113.72
2024-01-24T22:01:26.245Z,100109.31
2024-01-24T22:03:53.977Z,100109.72
2024-01-24T22:06:21.388Z,100106.09
2024-01-24T22:08:48.812Z,100115.91
2024-01-24T22:11:16.460Z,100112.16
2024-01-24T22:13:43.851Z,100110.12
2024-01-24T22:16:11.277Z,100115.00
2024-01-24T22:18:44.466Z,100111.03
2024-01-24T22:21:17.724Z,100120.44
2024-01-24T22:23:45.362Z,100112.19
2024-01-24T22:26:12.805Z,100112.94
2024-01-24T22:28:40.205Z,100121.06
2024-01-24T22:31:07.985Z,100106.88
2024-01-24T22:33:36.177Z,100103.44
2024-01-24T22:36:03.886Z,100102.25
2024-01-24T22:38:31.529Z,100103.09
2024-01-24T22:40:59.222Z,100102.91
2024-01-24T22:43:26.752Z,100097.81
2024-01-24T22:45:54.505Z,100105.75
2024-01-24T22:48:22.132Z,100098.50
2024-01-24T22:50:49.547Z,100102.56
2024-01-24T22:53:17.274Z,100115.13
2024-01-24T22:55:44.698Z,100117.47
2024-01-24T22:58:12.455Z,100109.81
2024-01-24T23:00:40.258Z,100115.81
2024-01-24T23:03:07.774Z,100103.91
2024-01-24T23:05:35.381Z,100111.19
2024-01-24T23:08:03.266Z,100117.41
2024-01-24T23:10:30.997Z,100108.84
2024-01-24T23:12:58.417Z,100113.69
2024-01-24T23:15:26.138Z,100114.44
2024-01-24T23:17:53.586Z,100120.81
2024-01-24T23:20:21.784Z,100115.72
2024-01-24T23:22:49.428Z,100109.09
2024-01-24T23:25:17.428Z,100109.47
2024-01-24T23:27:44.891Z,100102.97
2024-01-24T23:30:13.058Z,100108.03
2024-01-24T23:32:40.701Z,100097.44
2024-01-24T23:35:08.526Z,100115.03
2024-01-24T23:38:44.436Z,100110.91
2024-01-24T23:41:11.849Z,100107.44
2024-01-24T23:43:39.580Z,100111.06
2024-01-24T23:46:07.030Z,100101.06
2024-01-24T23:48:34.798Z,100102.19
2024-01-24T23:51:02.922Z,100112.75
2024-01-24T23:53:30.488Z,100103.41
2024-01-24T23:55:57.863Z,100098.63
2024-01-24T23:58:25.495Z,100107.69
